Time;durP1;ratioP1;P1;durP2;ratioP2;P2;SDS_P1;SDS_P2;PMS_P1;PMS_P2;Temp;Humidity;BMP_temperature;BMP_pressure;BME280_temperature;BME280_humidity;BME280_pressure;Samples;Min_cycle;Max_cycle;Signal;HPM_P1;HPM_P2
2021/05/29 00:00:43;;;;;;;326.10;301.40;;;;;;;15.50;100.00;100953.97;5067289;28;20419;-73
2021/05/29 00:03:09;;;;;;;355.30;331.10;;;;;;;15.56;100.00;100947.28;5068911;28;20179;-77
2021/05/29 00:05:34;;;;;;;324.47;301.00;;;;;;;15.56;100.00;100939.34;5069208;28;20784;-73
2021/05/29 00:08:00;;;;;;;225.43;208.03;;;;;;;15.57;100.00;100948.13;5069337;28;20178;-74
2021/05/29 00:10:25;;;;;;;294.20;272.23;;;;;;;15.58;100.00;100937.41;5068788;28;20177;-78
2021/05/29 00:12:51;;;;;;;357.63;331.20;;;;;;;15.56;100.00;100939.34;5068898;28;20206;-74
2021/05/29 00:15:17;;;;;;;294.37;272.43;;;;;;;15.51;100.00;100939.75;5069611;28;20664;-74
2021/05/29 00:17:42;;;;;;;338.37;313.93;;;;;;;15.53;100.00;100940.44;5068401;28;20602;-73
2021/05/29 00:20:09;;;;;;;345.23;320.63;;;;;;;15.55;100.00;100943.78;5068739;28;20230;-74
2021/05/29 00:22:34;;;;;;;316.73;294.03;;;;;;;15.51;100.00;100939.75;5068980;28;20172;-75
2021/05/29 00:25:00;;;;;;;295.37;273.77;;;;;;;15.55;100.00;100937.66;5069250;28;20426;-73
2021/05/29 00:27:25;;;;;;;300.90;279.33;;;;;;;15.54;100.00;100941.28;5069189;28;20164;-71
2021/05/29 00:29:51;;;;;;;297.67;276.80;;;;;;;15.57;100.00;100941.03;5067750;28;20208;-73
2021/05/29 00:32:16;;;;;;;290.30;269.33;;;;;;;15.56;100.00;100944.63;5069176;28;20257;-77
2021/05/29 00:34:42;;;;;;;281.13;260.10;;;;;;;15.58;100.00;100942.72;5068807;28;20173;-72
2021/05/29 00:37:07;;;;;;;248.37;229.27;;;;;;;15.55;100.00;100937.66;5068708;28;20254;-75
2021/05/29 00:39:32;;;;;;;292.10;269.70;;;;;;;15.59;100.00;100936.44;5068889;28;20223;-75
2021/05/29 00:41:58;;;;;;;280.67;260.07;;;;;;;15.55;100.00;100942.97;5068864;28;20196;-74
2021/05/29 00:44:23;;;;;;;225.13;207.20;;;;;;;15.57;100.00;100946.34;5068921;28;20665;-75
2021/05/29 00:46:49;;;;;;;310.37;286.20;;;;;;;15.55;100.00;100937.66;5068921;28;20168;-73
2021/05/29 00:49:14;;;;;;;229.83;211.80;;;;;;;15.57;100.00;100941.03;5068633;28;20161;-73
2021/05/29 00:51:40;;;;;;;341.63;315.43;;;;;;;15.60;100.00;100937.28;5068852;28;20252;-73
2021/05/29 00:54:06;;;;;;;261.90;242.00;;;;;;;15.57;100.00;100943.69;5068462;28;20204;-75
2021/05/29 00:56:32;;;;;;;255.80;236.63;;;;;;;15.52;100.00;100943.22;5068787;28;20206;-75
2021/05/29 00:58:57;;;;;;;251.47;232.23;;;;;;;15.54;100.00;100939.47;5066441;28;20410;-75
2021/05/29 01:01:23;;;;;;;225.50;208.13;;;;;;;15.55;100.00;100938.50;5068512;28;20217;-74
2021/05/29 01:03:49;;;;;;;305.40;283.80;;;;;;;15.53;100.00;100937.78;5068649;28;20627;-74
2021/05/29 01:06:14;;;;;;;249.33;230.63;;;;;;;15.54;100.00;100935.97;5068922;28;20661;-75
2021/05/29 01:08:40;;;;;;;215.47;198.87;;;;;;;15.55;100.00;100927.06;5068753;28;20164;-77
2021/05/29 01:11:07;;;;;;;274.13;254.53;;;;;;;15.51;100.00;100921.19;5068448;28;20224;-73
2021/05/29 01:13:35;;;;;;;248.10;230.13;;;;;;;15.54;100.00;100915.63;5068540;28;20167;-75
2021/05/29 01:16:07;;;;;;;269.53;250.57;;;;;;;15.56;100.00;100918.16;5068786;28;20520;-75
2021/05/29 01:18:33;;;;;;;289.23;269.07;;;;;;;15.57;100.00;100919.84;5068203;28;20425;-75
2021/05/29 01:21:01;;;;;;;354.43;328.23;;;;;;;15.61;100.00;100908.03;5068041;28;20422;-75
2021/05/29 01:23:27;;;;;;;319.33;296.47;;;;;;;15.65;100.00;100917.41;5067791;28;20175;-73
2021/05/29 01:25:52;;;;;;;323.97;300.67;;;;;;;15.69;100.00;100913.53;5068388;28;20788;-75
2021/05/29 01:28:20;;;;;;;207.47;191.83;;;;;;;15.71;100.00;100922.16;5068248;28;20411;-76
2021/05/29 01:31:01;;;;;;;346.80;321.10;;;;;;;15.82;100.00;100913.31;5068264;28;20634;-78
2021/05/29 01:33:31;;;;;;;291.53;270.33;;;;;;;15.87;100.00;100918.22;5068330;28;20540;-76
2021/05/29 01:36:01;;;;;;;217.10;199.70;;;;;;;15.92;100.00;100914.19;5068053;28;20414;-77
2021/05/29 01:38:27;;;;;;;181.50;166.87;;;;;;;15.91;100.00;100914.34;5068183;28;20456;-74
2021/05/29 01:41:00;;;;;;;287.07;265.53;;;;;;;15.93;100.00;100915.88;5067492;28;20565;-74
2021/05/29 01:43:26;;;;;;;332.30;304.83;;;;;;;15.95;100.00;100910.47;5072012;28;20405;-74
2021/05/29 01:45:53;;;;;;;189.47;174.53;;;;;;;16.00;100.00;100909.06;5072364;28;20383;-76
2021/05/29 01:48:20;;;;;;;199.47;184.23;;;;;;;15.93;100.00;100912.38;5071719;28;20302;-79
2021/05/29 01:50:46;;;;;;;291.60;268.57;;;;;;;15.85;100.00;100913.03;5071658;28;20458;-79
2021/05/29 01:53:14;;;;;;;231.77;214.37;;;;;;;15.79;100.00;100911.78;5071239;28;20751;-73
2021/05/29 01:55:41;;;;;;;261.13;240.07;;;;;;;15.75;100.00;100913.00;5071293;28;20410;-74
2021/05/29 01:58:07;;;;;;;161.20;147.87;;;;;;;15.75;100.00;100914.81;5071704;28;20792;-73
2021/05/29 02:00:33;;;;;;;274.40;254.63;;;;;;;15.68;100.00;100911.00;5069613;28;20422;-74
2021/05/29 02:02:59;;;;;;;269.67;249.77;;;;;;;15.69;100.00;100916.16;5071942;28;20391;-77
2021/05/29 02:05:27;;;;;;;286.83;260.37;;;;;;;15.65;100.00;100917.41;5071711;28;20797;-73
2021/05/29 02:07:53;;;;;;;219.83;200.97;;;;;;;15.63;100.00;100919.34;5072169;28;20713;-76
2021/05/29 02:10:25;;;;;;;384.30;355.97;;;;;;;15.58;100.00;100934.78;5070339;28;20410;-73
2021/05/29 02:12:55;;;;;;;416.60;385.50;;;;;;;15.55;100.00;100927.91;5071166;28;20410;-74
2021/05/29 02:15:24;;;;;;;285.87;264.40;;;;;;;15.54;100.00;100928.88;5071614;28;20387;-73
2021/05/29 02:17:52;;;;;;;363.10;336.97;;;;;;;15.60;100.00;100929.34;5073268;28;20399;-72
2021/05/29 02:20:39;;;;;;;311.87;288.93;;;;;;;15.57;100.00;100935.75;5074289;28;20505;-75
2021/05/29 02:23:05;;;;;;;352.97;325.87;;;;;;;15.56;100.00;100939.34;5072997;28;20422;-75
2021/05/29 02:25:31;;;;;;;309.17;286.13;;;;;;;15.57;100.00;100938.38;5074103;28;20923;-75
2021/05/29 02:27:56;;;;;;;298.53;275.93;;;;;;;15.53;100.00;100935.16;5074084;28;20403;-79
2021/05/29 02:30:22;;;;;;;222.87;206.47;;;;;;;15.56;100.00;100936.69;5074304;28;20200;-74
2021/05/29 02:32:48;;;;;;;244.53;225.30;;;;;;;15.52;100.00;100928.19;5073685;28;20630;-74
2021/05/29 02:35:14;;;;;;;302.60;279.80;;;;;;;15.52;100.00;100925.53;5073955;28;20402;-77
2021/05/29 02:37:40;;;;;;;364.73;338.07;;;;;;;15.53;100.00;100942.25;5073444;28;20407;-72
2021/05/29 02:40:06;;;;;;;315.53;292.33;;;;;;;15.51;100.00;100930.97;5072828;28;20251;-74
2021/05/29 02:42:31;;;;;;;326.90;301.43;;;;;;;15.50;100.00;100934.59;5073936;28;20229;-76
2021/05/29 02:44:58;;;;;;;421.70;388.53;;;;;;;15.48;100.00;100931.19;5073595;28;20399;-75
2021/05/29 02:47:24;;;;;;;301.93;278.60;;;;;;;15.52;100.00;100945.88;5073503;28;20217;-75
2021/05/29 02:49:49;;;;;;;418.07;387.57;;;;;;;15.51;100.00;100945.03;5073779;28;20823;-75
2021/05/29 02:52:15;;;;;;;368.10;340.40;;;;;;;15.55;100.00;100948.25;5073207;28;20473;-75
2021/05/29 02:54:42;;;;;;;383.83;354.30;;;;;;;15.54;100.00;100944.78;5071554;28;20176;-74
2021/05/29 02:57:12;;;;;;;421.83;389.83;;;;;;;15.57;100.00;100943.69;5073222;28;20414;-74
2021/05/29 02:59:39;;;;;;;573.93;530.03;;;;;;;15.67;100.00;100957.84;5073426;28;20395;-75
2021/05/29 03:02:07;;;;;;;366.90;339.13;;;;;;;15.73;100.00;100946.75;5073269;28;20395;-74
2021/05/29 03:04:33;;;;;;;325.37;299.63;;;;;;;15.74;100.00;100952.88;5073207;28;20465;-76
2021/05/29 03:06:59;;;;;;;330.13;304.07;;;;;;;15.74;100.00;100942.28;5073041;28;20431;-75
2021/05/29 03:09:25;;;;;;;343.87;316.17;;;;;;;15.75;100.00;100955.41;5062806;28;20917;-74
2021/05/29 03:11:51;;;;;;;441.03;404.47;;;;;;;15.78;100.00;100949.81;5061944;28;20192;-75
2021/05/29 03:14:16;;;;;;;381.27;352.23;;;;;;;15.84;100.00;100955.56;5072101;28;20831;-75
2021/05/29 03:16:42;;;;;;;390.37;361.63;;;;;;;15.83;100.00;100957.38;5073209;28;20176;-75
2021/05/29 03:19:08;;;;;;;292.17;268.03;;;;;;;15.87;100.00;100956.16;5073384;28;20160;-76
2021/05/29 03:21:33;;;;;;;367.93;339.20;;;;;;;15.93;100.00;100952.97;5071654;28;20176;-76
2021/05/29 03:23:59;;;;;;;325.00;299.37;;;;;;;15.91;100.00;100954.09;5071915;28;20180;-75
2021/05/29 03:26:25;;;;;;;284.57;262.17;;;;;;;15.99;100.00;100957.75;5072620;28;20693;-75
2021/05/29 03:28:51;;;;;;;302.93;279.13;;;;;;;16.01;100.00;100960.25;5072790;28;20184;-75
2021/05/29 03:31:18;;;;;;;422.40;390.80;;;;;;;16.04;100.00;100960.00;5073070;28;20737;-76
2021/05/29 03:33:43;;;;;;;231.90;213.10;;;;;;;16.03;100.00;100969.78;5071965;28;20530;-77
2021/05/29 03:36:09;;;;;;;306.27;282.43;;;;;;;16.06;100.00;100964.19;5072552;28;20411;-76
2021/05/29 03:38:35;;;;;;;229.30;210.33;;;;;;;16.16;100.00;100971.34;5072507;28;20213;-75
2021/05/29 03:41:00;;;;;;;268.90;247.77;;;;;;;16.15;100.00;100975.81;5062289;28;20589;-73
2021/05/29 03:43:26;;;;;;;459.40;424.60;;;;;;;16.18;100.00;100975.56;5052453;28;20196;-75
2021/05/29 03:45:51;;;;;;;304.33;278.60;;;;;;;16.16;100.00;100979.31;5068241;28;20263;-75
2021/05/29 03:48:17;;;;;;;236.20;217.60;;;;;;;16.13;100.00;100980.44;5072076;28;20165;-76
2021/05/29 03:50:43;;;;;;;358.67;329.87;;;;;;;16.16;100.00;100988.09;5072407;28;20159;-76
2021/05/29 03:53:09;;;;;;;335.47;309.77;;;;;;;16.20;100.00;100983.38;5072140;28;20156;-74
2021/05/29 03:55:36;;;;;;;231.13;212.07;;;;;;;16.19;100.00;100984.38;5071020;28;20176;-75
2021/05/29 03:58:02;;;;;;;298.77;274.80;;;;;;;16.24;100.00;100987.44;5072277;28;20391;-82
2021/05/29 04:00:29;;;;;;;298.97;274.73;;;;;;;16.24;100.00;100987.44;5071172;28;20407;-73
2021/05/29 04:02:54;;;;;;;310.90;285.67;;;;;;;16.32;100.00;100996.44;5072398;28;20427;-76
2021/05/29 04:05:21;;;;;;;285.60;262.53;;;;;;;16.37;100.00;100982.75;5072065;28;20794;-75
2021/05/29 04:07:48;;;;;;;168.90;153.00;;;;;;;16.38;100.00;100995.03;5072421;28;20156;-76
2021/05/29 04:10:16;;;;;;;167.07;151.47;;;;;;;16.36;100.00;100989.88;5071796;28;20418;-76
2021/05/29 04:12:42;;;;;;;211.77;192.70;;;;;;;16.38;100.00;100995.03;5060393;28;20470;-75
2021/05/29 04:15:09;;;;;;;169.77;154.10;;;;;;;16.44;100.00;100998.97;5071582;28;20402;-76
2021/05/29 04:17:35;;;;;;;179.30;162.70;;;;;;;16.41;100.00;100999.25;5069484;28;20413;-84
2021/05/29 04:20:01;;;;;;;236.23;216.13;;;;;;;16.44;100.00;101001.63;5066612;28;21007;-74
2021/05/29 04:22:26;;;;;;;184.13;167.33;;;;;;;16.40;100.00;100993.13;5070700;28;20207;-75
2021/05/29 04:24:52;;;;;;;249.30;227.70;;;;;;;16.41;100.00;101004.56;5057711;28;20248;-74
2021/05/29 04:27:18;;;;;;;312.20;285.00;;;;;;;16.42;100.00;101007.06;5067412;28;20183;-75
2021/05/29 04:29:45;;;;;;;182.40;166.03;;;;;;;16.43;100.00;101005.25;5071706;28;20956;-75
2021/05/29 04:32:10;;;;;;;240.60;219.27;;;;;;;16.43;100.00;100998.13;5071146;28;20438;-75
2021/05/29 04:34:36;;;;;;;128.90;116.10;;;;;;;16.45;100.00;100993.53;5071376;28;20388;-75
2021/05/29 04:37:03;;;;;;;312.00;288.77;;;;;;;16.51;100.00;100995.66;5064053;28;20615;-75
2021/05/29 04:39:28;;;;;;;161.93;147.43;;;;;;;16.46;100.00;100997.03;5056745;28;20450;-73
2021/05/29 04:41:54;;;;;;;179.83;164.03;;;;;;;16.56;100.00;100992.59;5071038;28;20415;-74
2021/05/29 04:44:19;;;;;;;200.83;183.70;;;;;;;16.60;100.00;101005.44;5071047;28;20164;-75
2021/05/29 04:46:52;;;;;;;146.27;132.50;;;;;;;16.63;100.00;100999.06;5071544;28;20180;-74
2021/05/29 04:49:20;;;;;;;235.70;216.90;;;;;;;16.72;100.00;101008.88;5071120;28;20164;-76
2021/05/29 04:51:46;;;;;;;210.13;193.60;;;;;;;16.80;100.00;101000.25;5060684;28;20443;-74
2021/05/29 04:54:12;;;;;;;248.30;228.93;;;;;;;16.77;100.00;100996.03;5070090;28;20803;-76
2021/05/29 04:56:37;;;;;;;208.47;192.23;;;;;;;16.87;100.00;101004.88;5069963;28;20444;-76
2021/05/29 04:59:03;;;;;;;289.13;266.37;;;;;;;16.89;100.00;101000.25;5062247;28;20423;-75
2021/05/29 05:01:31;;;;;;;192.97;177.80;;;;;;;16.98;100.00;100997.75;5051216;28;20578;-75
2021/05/29 05:03:58;;;;;;;195.83;179.33;;;;;;;17.01;100.00;100994.84;5051321;28;20153;-77
2021/05/29 05:06:24;;;;;;;197.30;180.73;;;;;;;16.95;100.00;100995.38;5063776;28;20437;-75
2021/05/29 05:08:50;;;;;;;175.20;160.17;;;;;;;16.96;100.00;101003.19;5071249;28;20399;-77
2021/05/29 05:11:15;;;;;;;207.73;190.57;;;;;;;17.02;100.00;101015.09;5070136;28;20215;-79
2021/05/29 05:13:41;;;;;;;330.73;304.53;;;;;;;16.96;100.00;101008.50;5070104;28;20160;-74
2021/05/29 05:16:06;;;;;;;210.00;192.87;;;;;;;16.88;100.00;101017.16;5071897;28;20570;-76
2021/05/29 05:18:32;;;;;;;149.13;136.40;;;;;;;16.92;100.00;101020.38;5077063;28;20165;-76
2021/05/29 05:20:57;;;;;;;125.60;113.70;;;;;;;16.91;100.00;101024.00;5077237;28;20200;-74
2021/05/29 05:23:23;;;;;;;136.87;124.60;;;;;;;16.90;100.00;101020.50;5076842;28;20606;-78
2021/05/29 05:25:53;;;;;;;277.27;257.27;;;;;;;16.89;100.00;101018.00;5077659;28;20163;-78
2021/05/29 05:28:22;;;;;;;225.07;205.93;;;;;;;16.90;100.00;101032.94;5076105;28;20196;-90
2021/05/29 05:30:48;;;;;;;153.00;138.90;;;;;;;16.95;100.00;101028.06;5079944;28;20401;-82
2021/05/29 05:33:14;;;;;;;289.80;265.73;;;;;;;16.87;100.00;101038.53;5078951;28;20411;-76
2021/05/29 05:35:41;;;;;;;159.60;145.83;;;;;;;16.88;100.00;101042.88;5077309;28;20418;-76
2021/05/29 05:38:06;;;;;;;169.33;154.60;;;;;;;16.85;100.00;101043.97;5067180;28;20805;-73
2021/05/29 05:40:32;;;;;;;149.60;135.80;;;;;;;16.83;100.00;101048.56;5074257;28;20454;-75
2021/05/29 05:42:57;;;;;;;152.70;139.40;;;;;;;16.86;100.00;101056.28;5076762;28;20237;-76
2021/05/29 05:45:23;;;;;;;153.40;139.57;;;;;;;16.90;100.00;101060.31;5077470;28;20167;-81
2021/05/29 05:47:48;;;;;;;138.83;125.93;;;;;;;16.88;100.00;101064.09;5076508;28;20168;-76
2021/05/29 05:50:14;;;;;;;158.97;145.30;;;;;;;16.79;100.00;101064.91;5077482;28;20157;-77
2021/05/29 05:52:40;;;;;;;159.97;146.10;;;;;;;16.81;100.00;101062.97;5076911;28;20290;-75
2021/05/29 05:55:08;;;;;;;181.10;165.73;;;;;;;16.82;100.00;101061.97;5077440;28;20165;-77
2021/05/29 05:57:36;;;;;;;176.77;162.50;;;;;;;16.77;100.00;101065.03;5077852;28;20432;-79
2021/05/29 06:00:05;;;;;;;159.63;145.57;;;;;;;16.76;100.00;101060.69;5077437;28;20414;-75
2021/05/29 06:02:31;;;;;;;243.20;223.93;;;;;;;16.78;100.00;101063.25;5075431;28;20410;-77
2021/05/29 06:04:57;;;;;;;231.60;213.27;;;;;;;16.76;100.00;101057.19;5069931;28;20529;-75
2021/05/29 06:07:22;;;;;;;182.43;167.17;;;;;;;16.72;100.00;101061.13;5075800;28;20661;-79
2021/05/29 06:09:48;;;;;;;275.10;250.43;;;;;;;16.69;100.00;101072.81;5077450;28;20254;-79
2021/05/29 06:12:13;;;;;;;303.67;272.73;;;;;;;16.70;100.00;101077.19;5074876;28;20700;-80
2021/05/29 06:20:12;;;;;;;170.97;156.20;;;;;;;16.84;100.00;101068.81;5073554;28;20479;-78
2021/05/29 06:22:39;;;;;;;253.10;233.93;;;;;;;16.88;100.00;101067.59;5076648;28;20501;-76
2021/05/29 06:25:06;;;;;;;175.07;160.97;;;;;;;16.91;100.00;101059.34;5069175;28;20507;-76
2021/05/29 06:27:32;;;;;;;203.97;188.37;;;;;;;17.02;100.00;101047.78;5075587;28;20940;-75
2021/05/29 06:29:57;;;;;;;137.67;125.07;;;;;;;17.08;100.00;101049.06;5074016;28;20473;-77
2021/05/29 06:32:23;;;;;;;195.37;179.23;;;;;;;17.23;100.00;101050.34;5073725;28;20337;-75
2021/05/29 06:34:48;;;;;;;195.00;179.50;;;;;;;17.27;100.00;101041.13;5072282;28;20160;-77
2021/05/29 06:37:15;;;;;;;144.37;131.70;;;;;;;17.25;100.00;101058.19;5064660;28;20179;-79
2021/05/29 06:39:40;;;;;;;146.70;134.07;;;;;;;17.35;100.00;101045.72;5073994;28;20580;-82
2021/05/29 06:42:06;;;;;;;299.23;276.53;;;;;;;17.31;100.00;101044.34;5072295;28;20408;-77
2021/05/29 06:44:32;;;;;;;224.43;206.33;;;;;;;17.29;100.00;101047.13;5066805;28;20206;-77
2021/05/29 06:46:57;;;;;;;177.93;163.30;;;;;;;17.30;100.00;101045.31;5073217;28;20419;-75
2021/05/29 06:49:23;;;;;;;244.03;226.17;;;;;;;17.20;100.00;101051.44;5072860;28;20603;-76
2021/05/29 06:52:04;;;;;;;294.20;270.07;;;;;;;17.22;100.00;101053.97;5073765;28;20208;-78
2021/05/29 06:54:46;;;;;;;279.47;257.90;;;;;;;17.32;100.00;101059.31;5075616;28;20164;-77
2021/05/29 06:59:56;;;;;;;150.07;137.10;;;;;;;17.30;100.00;101061.25;5074497;28;20382;-74
2021/05/29 07:02:21;;;;;;;207.20;190.30;;;;;;;17.25;100.00;101051.03;5072639;28;20829;-82
2021/05/29 07:04:47;;;;;;;164.47;150.00;;;;;;;17.33;100.00;101060.97;5074304;28;20630;-78
2021/05/29 07:07:12;;;;;;;278.57;257.20;;;;;;;17.36;100.00;101064.19;5072947;28;20167;-77
2021/05/29 07:09:38;;;;;;;158.23;145.03;;;;;;;17.37;100.00;101063.19;5073345;28;20658;-74
2021/05/29 07:12:04;;;;;;;163.53;149.20;;;;;;;17.39;100.00;101061.28;5073082;28;20220;-78
2021/05/29 07:14:29;;;;;;;212.80;192.77;;;;;;;17.45;100.00;101063.34;5073002;28;20318;-80
2021/05/29 07:16:56;;;;;;;215.63;198.03;;;;;;;17.47;100.00;101068.53;5065727;28;20200;-77
2021/05/29 07:19:23;;;;;;;153.73;140.30;;;;;;;17.52;100.00;101055.66;5062399;28;20156;-74
2021/05/29 07:21:50;;;;;;;163.33;149.97;;;;;;;17.64;100.00;101072.31;5057400;28;20403;-77
2021/05/29 07:24:17;;;;;;;196.07;179.60;;;;;;;17.74;100.00;101078.50;5068786;28;20904;-76
2021/05/29 07:26:43;;;;;;;129.77;117.80;;;;;;;17.72;100.00;101078.63;5072632;28;20414;-72
2021/05/29 07:29:09;;;;;;;137.53;124.97;;;;;;;17.80;100.00;101077.94;5060959;28;20432;-74
2021/05/29 07:31:35;;;;;;;172.73;158.73;;;;;;;17.86;100.00;101089.84;5067025;28;20195;-73
2021/05/29 07:34:00;;;;;;;193.27;177.83;;;;;;;17.98;100.00;101094.84;5056784;28;20781;-75
2021/05/29 07:36:26;;;;;;;118.67;107.63;;;;;;;17.96;100.00;101099.47;5071982;28;20823;-78
2021/05/29 07:38:52;;;;;;;91.03;77.97;;;;;;;17.97;100.00;101095.00;5068094;28;20589;-75
2021/05/29 07:41:17;;;;;;;131.87;119.07;;;;;;;18.10;100.00;101089.38;5065476;28;20212;-76
2021/05/29 07:43:43;;;;;;;146.83;134.43;;;;;;;18.20;100.00;101095.50;5070620;28;20172;-75
2021/05/29 07:46:09;;;;;;;107.17;96.87;;;;;;;18.29;100.00;101098.19;5058924;28;20243;-73
2021/05/29 07:48:37;;;;;;;122.60;112.13;;;;;;;18.30;100.00;101089.22;5066418;28;20161;-73
2021/05/29 07:51:03;;;;;;;118.87;108.30;;;;;;;18.44;100.00;101087.91;5051910;28;20439;-73
2021/05/29 07:53:34;;;;;;;128.03;116.33;;;;;;;18.45;100.00;101094.06;5052237;28;20449;-80
2021/05/29 07:56:03;;;;;;;149.47;136.67;;;;;;;18.56;100.00;101092.06;5065765;28;20484;-74
2021/05/29 07:58:30;;;;;;;134.57;122.20;;;;;;;18.58;100.00;101074.09;5056839;28;20939;-77
2021/05/29 08:00:57;;;;;;;124.87;112.80;;;;;;;18.53;100.00;101091.53;5086970;28;20409;-74
2021/05/29 08:03:26;;;;;;;119.37;108.33;;;;;;;18.69;100.00;101074.97;5068308;28;20422;-75
2021/05/29 08:05:54;;;;;;;139.10;126.83;;;;;;;18.76;100.00;101082.22;5071106;28;20435;-71
2021/05/29 08:08:21;;;;;;;138.97;126.50;;;;;;;18.80;100.00;101083.56;5070597;28;20403;-75
2021/05/29 08:10:49;;;;;;;113.03;102.20;;;;;;;18.91;100.00;101082.56;5070202;28;20433;-74
2021/05/29 08:13:16;;;;;;;115.97;105.30;;;;;;;18.84;100.00;101086.81;5070918;28;20457;-74
2021/05/29 08:15:42;;;;;;;110.40;99.80;;;;;;;18.79;100.00;101089.91;5068781;28;20464;-76
2021/05/29 08:18:08;;;;;;;87.97;79.47;;;;;;;18.79;100.00;101089.91;5063466;28;20414;-74
2021/05/29 08:20:37;;;;;;;169.33;156.23;;;;;;;18.56;100.00;101097.38;5070790;28;20463;-73
2021/05/29 08:23:04;;;;;;;134.73;123.20;;;;;;;18.64;100.00;101099.31;5070567;28;20395;-75
2021/05/29 08:25:31;;;;;;;113.53;103.63;;;;;;;18.72;100.00;101109.25;5070949;28;20931;-73
2021/05/29 08:27:56;;;;;;;330.47;307.03;;;;;;;18.84;100.00;101106.28;5070299;28;20439;-75
2021/05/29 08:30:24;;;;;;;87.13;78.80;;;;;;;18.92;100.00;101099.38;5071223;28;20418;-74
2021/05/29 08:32:50;;;;;;;76.63;69.43;;;;;;;19.04;100.00;101100.84;5068975;28;20180;-76
2021/05/29 08:35:16;;;;;;;55.73;45.87;;;;;;;19.16;100.00;101097.00;5069290;28;20433;-75
2021/05/29 08:37:45;;;;;;;46.63;39.57;;;;;;;19.17;100.00;101105.81;5056897;28;20808;-73
2021/05/29 08:40:13;;;;;;;45.83;40.80;;;;;;;19.23;100.00;101102.56;5069112;28;20589;-77
2021/05/29 08:42:42;;;;;;;68.40;61.37;;;;;;;19.39;100.00;101108.91;5069858;28;20852;-76
2021/05/29 08:45:09;;;;;;;42.97;30.17;;;;;;;19.45;100.00;101114.63;5063757;28;20427;-77
2021/05/29 08:47:35;;;;;;;84.60;77.13;;;;;;;19.59;100.00;101106.16;5050725;28;20401;-74
2021/05/29 08:50:00;;;;;;;33.37;18.43;;;;;;;19.58;100.00;101109.81;5059578;28;20403;-77
2021/05/29 08:52:26;;;;;;;41.67;32.67;;;;;;;19.71;100.00;101104.06;5069695;28;20277;-74
2021/05/29 08:54:52;;;;;;;36.53;24.60;;;;;;;19.86;100.00;101111.38;5049824;28;20157;-73
2021/05/29 08:57:18;;;;;;;29.80;13.30;;;;;;;19.91;100.00;101106.44;5056610;28;20160;-77
2021/05/29 08:59:43;;;;;;;42.30;27.47;;;;;;;19.79;100.00;101112.16;5061911;28;20226;-77
2021/05/29 09:02:10;;;;;;;34.93;16.93;;;;;;;19.82;100.00;101117.19;5070345;28;20160;-77
2021/05/29 09:04:36;;;;;;;39.17;24.63;;;;;;;19.78;100.00;101105.16;5054206;28;20177;-76
2021/05/29 09:07:02;;;;;;;47.70;41.07;;;;;;;19.82;100.00;101118.03;5057854;28;20771;-76
2021/05/29 09:09:28;;;;;;;29.60;17.90;;;;;;;19.66;100.00;101121.38;5068554;28;20478;-76
2021/05/29 09:11:58;;;;;;;25.10;11.90;;;;;;;19.82;100.00;101125.19;5069277;28;20454;-77
2021/05/29 09:14:28;;;;;;;38.17;19.83;;;;;;;20.00;100.00;101122.50;5070448;28;20161;-78
2021/05/29 09:17:14;;;;;;;30.50;11.80;;;;;;;20.14;100.00;101116.63;5066153;28;20411;-78
2021/05/29 09:20:06;;;;;;;32.53;12.83;;;;;;;20.30;100.00;101118.56;5069060;28;20414;-76
2021/05/29 09:22:54;;;;;;;51.27;45.97;;;;;;;20.24;100.00;101115.50;5069427;28;20421;-79
2021/05/29 09:25:22;;;;;;;23.20;8.53;;;;;;;20.21;100.00;101112.34;5070419;28;20423;-78
2021/05/29 09:28:06;;;;;;;18.60;6.70;;;;;;;20.34;100.00;101109.25;5051785;28;20462;-75
2021/05/29 09:30:48;;;;;;;29.73;17.87;;;;;;;20.45;100.00;101109.84;5050313;28;20427;-75
2021/05/29 09:33:28;;;;;;;20.50;10.20;;;;;;;20.48;100.00;101108.72;5050134;28;20428;-82
2021/05/29 09:36:00;;;;;;;20.90;7.10;;;;;;;20.43;100.00;101106.47;5050260;28;20391;-76
2021/05/29 09:38:53;;;;;;;20.30;7.33;;;;;;;20.56;100.00;101105.25;5050464;28;20396;-76
2021/05/29 09:41:22;;;;;;;19.83;6.53;;;;;;;20.74;100.00;101096.16;5049785;28;20443;-81
2021/05/29 09:43:56;;;;;;;22.60;6.90;;;;;;;20.88;100.00;101101.91;5067734;28;20424;-76
2021/05/29 09:46:22;;;;;;;22.43;6.77;;;;;;;20.91;100.00;101098.91;5070077;28;20398;-76
2021/05/29 09:48:56;;;;;;;18.27;6.20;;;;;;;20.95;100.00;101102.94;5067135;28;20503;-78
2021/05/29 09:51:22;;;;;;;23.83;12.33;;;;;;;21.01;100.00;101100.47;5068666;28;21040;-79
2021/05/29 09:53:50;;;;;;;20.13;7.13;;;;;;;21.19;100.00;101097.66;5062392;28;20494;-76
2021/05/29 09:56:44;;;;;;;15.63;6.00;;;;;;;21.34;100.00;101089.91;5050075;28;20772;-78
2021/05/29 09:59:15;;;;;;;18.30;7.87;;;;;;;21.52;100.00;101095.09;5052507;28;20459;-80
2021/05/29 10:01:51;;;;;;;27.57;5.97;;;;;;;21.76;100.00;101084.41;5063457;28;20418;-76
2021/05/29 10:04:22;;;;;;;21.53;5.03;;;;;;;21.78;100.00;101090.44;5065079;28;20419;-75
2021/05/29 10:07:14;;;;;;;14.13;4.50;;;;;;;22.00;100.00;101088.94;5069336;28;20767;-78
2021/05/29 10:09:41;;;;;;;17.83;8.60;;;;;;;22.09;100.00;101073.75;5066326;28;20426;-76
2021/05/29 10:12:08;;;;;;;24.00;15.33;;;;;;;22.25;100.00;101081.75;5060777;28;20458;-78
2021/05/29 10:14:35;;;;;;;14.73;7.40;;;;;;;22.31;100.00;101075.72;5071186;28;20927;-80
2021/05/29 10:17:06;;;;;;;23.67;15.93;;;;;;;22.77;100.00;101073.22;5062510;28;20496;-81
2021/05/29 10:19:33;;;;;;;25.27;22.60;;;;;;;23.08;100.00;101065.22;5053884;28;20465;-75
2021/05/29 10:22:07;;;;;;;30.23;24.47;;;;;;;23.35;100.00;101066.59;5053487;28;20837;-77
2021/05/29 10:24:33;;;;;;;10.53;2.73;;;;;;;23.77;100.00;101073.34;5060980;28;20410;-75
2021/05/29 10:27:05;;;;;;;11.40;2.93;;;;;;;24.11;100.00;101074.69;5072722;28;20501;-80
2021/05/29 10:29:31;;;;;;;11.90;4.73;;;;;;;24.43;100.00;101084.31;5072399;28;20401;-76
2021/05/29 10:32:10;;;;;;;13.83;4.13;;;;;;;24.41;100.00;101083.66;5072379;28;20865;-76
2021/05/29 10:35:05;;;;;;;11.33;3.30;;;;;;;24.65;100.00;101079.88;5073009;28;20160;-76
2021/05/29 10:37:43;;;;;;;11.23;2.77;;;;;;;24.97;100.00;101075.94;5069760;28;20420;-79
2021/05/29 10:40:33;;;;;;;10.53;3.57;;;;;;;25.35;100.00;101082.81;5057955;28;20462;-76
2021/05/29 10:43:29;;;;;;;10.07;3.27;;;;;;;24.57;100.00;101087.03;5060508;28;20518;-79
2021/05/29 10:45:55;;;;;;;10.30;3.13;;;;;;;24.28;100.00;101086.97;5056078;28;20478;-82
2021/05/29 10:48:25;;;;;;;10.97;3.00;;;;;;;24.28;100.00;101089.66;5072187;28;20829;-77
2021/05/29 10:50:58;;;;;;;10.37;3.33;;;;;;;24.56;100.00;101085.34;5071831;28;20164;-74
2021/05/29 10:53:53;;;;;;;9.10;3.00;;;;;;;24.52;100.00;101085.91;5063394;28;20484;-86
2021/05/29 10:56:19;;;;;;;8.50;2.53;;;;;;;23.92;100.00;101086.81;5074257;28;20410;-88
2021/05/29 10:59:08;;;;;;;8.70;3.00;;;;;;;23.97;100.00;101077.19;5070651;28;20419;-78
2021/05/29 11:01:40;;;;;;;11.83;3.57;;;;;;;24.21;100.00;101083.34;5073261;28;20257;-81
2021/05/29 11:04:15;;;;;;;10.20;3.10;;;;;;;24.40;100.00;101074.75;5068640;28;20446;-81